Terminal Aerodrome Forecast
Issued by NWS Austin/San Antonio, TX

Home | Current Version | Previous Version | Text Only | Print | Product List | Glossary On
Versions: 1 2 3 4 5 6 7 8 9 10 11 12 13 14 15 16 17 18 19 20 21 22 23 24 25 26 27
616
FTUS44 KEWX 260523
TAFAUS
TAF
KAUS 260523Z 2606/2712 13005KT P6SM SCT100 BKN250
     FM260900 12005KT P6SM OVC015
     FM261100 10004KT 3SM BR OVC006
     FM261600 12007KT P6SM OVC015
     FM261800 12008KT P6SM VCSH SCT030 BKN050=

USA.gov is the U.S. government's official web portal to all federal, state and local government web resources and services.